FMMI/TNR METAR and TAF weather

Enter ICAO airport designator
Station Type Date Time Source
FMMI METAR 2018/12/12 05:30 UTC NOAA

FMMI 120530Z 10005KT 060V160 9999 SCT017 24/18 Q1021 NOSIG


Station Type Date Time Source
FMMI Decoded METAR 2018/12/12 05:30 UTC NOAA

Antananarivo / Ivato, Madagascar (FMMI) 18-48S 047-29E 1276M
Dec 12, 2018 - 12:30 AM EST / 2018.12.12 0530 UTC
Wind: from the E (100 degrees) at 6 MPH (5 KT) (direction variable):0
Visibility: greater than 7 mile(s):0
Sky conditions: partly cloudy
Temperature: 75 F (24 C)
Dew Point: 64 F (18 C)
Relative Humidity: 69%
Pressure (altimeter): 30.15 in. Hg (1021 hPa)
ob: FMMI 120530Z 10005KT 060V160 9999 SCT017 24/18 Q1021 NOSIG
cycle: 5

Station Type Date Time Source
FMMI TAF 2018/12/12 06:03 UTC NOAA

TAF FMMI 120500Z 1206/1312 VRB05KT 9999 FEW017 BKN020
BECMG 1207/1210 SCT020CB SCT023 PROB40
TEMPO 1208/1211 VRB15KT 4000 TSRA
TEMPO 1214/1303 VRB15KT 4000 TSRA
BECMG 1305/1307 SCT020
BECMG 1310/1312 SCT020CB


Example: see airport list